sensor_id;sensor_type;location;lat;lon;timestamp;temperature;humidity
8402;DHT22;4238;48.404;9.498;2024-01-30T05:02:40;-0.30;79.30
8402;DHT22;4238;48.404;9.498;2024-01-30T05:05:07;-0.30;75.90
8402;DHT22;4238;48.404;9.498;2024-01-30T05:07:34;-0.20;72.50
8402;DHT22;4238;48.404;9.498;2024-01-30T05:10:01;-0.30;62.70
8402;DHT22;4238;48.404;9.498;2024-01-30T05:12:28;-0.30;68.70
8402;DHT22;4238;48.404;9.498;2024-01-30T05:14:55;-0.40;65.80
8402;DHT22;4238;48.404;9.498;2024-01-30T05:17:22;-0.40;68.30
8402;DHT22;4238;48.404;9.498;2024-01-30T05:19:50;-0.40;66.60
8402;DHT22;4238;48.404;9.498;2024-01-30T05:22:17;-0.40;71.20
8402;DHT22;4238;48.404;9.498;2024-01-30T05:24:44;-0.40;70.60
8402;DHT22;4238;48.404;9.498;2024-01-30T05:27:11;-0.40;70.10
8402;DHT22;4238;48.404;9.498;2024-01-30T05:29:39;-0.40;72.40
8402;DHT22;4238;48.404;9.498;2024-01-30T05:32:06;-0.40;62.90
8402;DHT22;4238;48.404;9.498;2024-01-30T05:34:33;-0.40;65.20
8402;DHT22;4238;48.404;9.498;2024-01-30T05:37:01;-0.40;64.80
8402;DHT22;4238;48.404;9.498;2024-01-30T05:39:28;-0.50;68.50
8402;DHT22;4238;48.404;9.498;2024-01-30T05:41:55;-0.50;77.10
8402;DHT22;4238;48.404;9.498;2024-01-30T05:44:22;-0.40;90.20
8402;DHT22;4238;48.404;9.498;2024-01-30T05:46:48;-0.50;72.40
8402;DHT22;4238;48.404;9.498;2024-01-30T05:49:15;-0.50;70.80
8402;DHT22;4238;48.404;9.498;2024-01-30T05:51:42;-0.60;89.10
8402;DHT22;4238;48.404;9.498;2024-01-30T05:54:10;-0.50;82.70
8402;DHT22;4238;48.404;9.498;2024-01-30T05:56:37;-0.50;75.90
8402;DHT22;4238;48.404;9.498;2024-01-30T05:59:04;-0.60;73.90
8402;DHT22;4238;48.404;9.498;2024-01-30T06:01:30;-0.50;73.60
8402;DHT22;4238;48.404;9.498;2024-01-30T06:03:57;-0.50;72.80
8402;DHT22;4238;48.404;9.498;2024-01-30T06:06:24;-0.40;80.10
8402;DHT22;4238;48.404;9.498;2024-01-30T06:08:51;-0.10;75.50
8402;DHT22;4238;48.404;9.498;2024-01-30T06:11:22;-0.20;59.70
8402;DHT22;4238;48.404;9.498;2024-01-30T06:13:48;-0.40;66.70
8402;DHT22;4238;48.404;9.498;2024-01-30T06:16:15;-0.40;70.70
8402;DHT22;4238;48.404;9.498;2024-01-30T06:18:42;-0.50;71.60
8402;DHT22;4238;48.404;9.498;2024-01-30T06:21:09;-0.40;76.10
8402;DHT22;4238;48.404;9.498;2024-01-30T06:23:36;-0.30;62.60
8402;DHT22;4238;48.404;9.498;2024-01-30T06:26:03;-0.20;71.20
8402;DHT22;4238;48.404;9.498;2024-01-30T06:28:31;0.00;86.80
8402;DHT22;4238;48.404;9.498;2024-01-30T06:31:00;0.00;69.10
8402;DHT22;4238;48.404;9.498;2024-01-30T06:33:27;-0.20;65.30
8402;DHT22;4238;48.404;9.498;2024-01-30T06:35:54;-0.20;59.00
8402;DHT22;4238;48.404;9.498;2024-01-30T06:38:21;-0.30;59.50
8402;DHT22;4238;48.404;9.498;2024-01-30T06:40:48;-0.30;60.00
8402;DHT22;4238;48.404;9.498;2024-01-30T06:43:14;-0.20;57.30
8402;DHT22;4238;48.404;9.498;2024-01-30T06:45:43;-0.10;51.30
8402;DHT22;4238;48.404;9.498;2024-01-30T06:48:10;-0.10;53.10
8402;DHT22;4238;48.404;9.498;2024-01-30T06:50:36;-0.30;58.20
8402;DHT22;4238;48.404;9.498;2024-01-30T06:53:03;-0.30;73.40
8402;DHT22;4238;48.404;9.498;2024-01-30T06:55:30;-0.20;70.20
8402;DHT22;4238;48.404;9.498;2024-01-30T06:57:57;0.10;63.00
8402;DHT22;4238;48.404;9.498;2024-01-30T07:00:24;0.20;59.70
8402;DHT22;4238;48.404;9.498;2024-01-30T07:02:52;0.20;56.60
8402;DHT22;4238;48.404;9.498;2024-01-30T07:05:19;0.50;51.70
8402;DHT22;4238;48.404;9.498;2024-01-30T07:07:50;0.60;31.20
8402;DHT22;4238;48.404;9.498;2024-01-30T07:10:17;0.50;33.80
8402;DHT22;4238;48.404;9.498;2024-01-30T07:12:44;0.40;39.80
8402;DHT22;4238;48.404;9.498;2024-01-30T07:15:11;0.50;34.80
8402;DHT22;4238;48.404;9.498;2024-01-30T07:17:40;0.40;36.30
8402;DHT22;4238;48.404;9.498;2024-01-30T07:20:09;0.30;49.30
8402;DHT22;4238;48.404;9.498;2024-01-30T07:22:36;0.30;48.80
8402;DHT22;4238;48.404;9.498;2024-01-30T07:25:03;0.20;49.30
8402;DHT22;4238;48.404;9.498;2024-01-30T07:27:31;0.00;56.00
8402;DHT22;4238;48.404;9.498;2024-01-30T07:29:58;0.20;57.00
8402;DHT22;4238;48.404;9.498;2024-01-30T07:32:25;0.20;52.00
8402;DHT22;4238;48.404;9.498;2024-01-30T07:34:51;0.10;55.30
8402;DHT22;4238;48.404;9.498;2024-01-30T07:37:20;0.10;60.70
8402;DHT22;4238;48.404;9.498;2024-01-30T07:39:47;0.20;60.90
8402;DHT22;4238;48.404;9.498;2024-01-30T07:42:13;0.40;53.90
8402;DHT22;4238;48.404;9.498;2024-01-30T07:44:40;0.70;44.90
8402;DHT22;4238;48.404;9.498;2024-01-30T07:47:07;0.70;35.20
8402;DHT22;4238;48.404;9.498;2024-01-30T07:49:34;0.70;40.30
8402;DHT22;4238;48.404;9.498;2024-01-30T07:52:01;0.60;46.10
8402;DHT22;4238;48.404;9.498;2024-01-30T07:54:33;0.50;48.80
8402;DHT22;4238;48.404;9.498;2024-01-30T07:57:09;0.50;54.80
8402;DHT22;4238;48.404;9.498;2024-01-30T07:59:36;0.60;52.50
8402;DHT22;4238;48.404;9.498;2024-01-30T08:02:03;0.90;47.20
8402;DHT22;4238;48.404;9.498;2024-01-30T08:04:30;1.20;34.10
8402;DHT22;4238;48.404;9.498;2024-01-30T08:06:56;1.30;29.90
8402;DHT22;4238;48.404;9.498;2024-01-30T08:09:23;1.30;29.50
8402;DHT22;4238;48.404;9.498;2024-01-30T08:11:51;1.40;21.80
8402;DHT22;4238;48.404;9.498;2024-01-30T08:14:18;1.30;28.70
8402;DHT22;4238;48.404;9.498;2024-01-30T08:16:45;1.30;36.90
8402;DHT22;4238;48.404;9.498;2024-01-30T08:19:12;1.20;39.90
8402;DHT22;4238;48.404;9.498;2024-01-30T08:21:39;1.30;35.70
8402;DHT22;4238;48.404;9.498;2024-01-30T08:24:07;1.40;36.80
8402;DHT22;4238;48.404;9.498;2024-01-30T08:26:34;1.60;31.70
8402;DHT22;4238;48.404;9.498;2024-01-30T08:29:03;1.80;14.90
8402;DHT22;4238;48.404;9.498;2024-01-30T08:31:30;2.10;1.00
8402;DHT22;4238;48.404;9.498;2024-01-30T08:33:57;2.20;1.00
8402;DHT22;4238;48.404;9.498;2024-01-30T08:36:24;2.50;1.00
8402;DHT22;4238;48.404;9.498;2024-01-30T08:38:51;2.70;1.00
8402;DHT22;4238;48.404;9.498;2024-01-30T08:41:18;2.90;1.00
8402;DHT22;4238;48.404;9.498;2024-01-30T08:43:45;3.00;1.00
8402;DHT22;4238;48.404;9.498;2024-01-30T08:46:16;3.00;1.00
8402;DHT22;4238;48.404;9.498;2024-01-30T08:48:43;3.10;1.00
8402;DHT22;4238;48.404;9.498;2024-01-30T08:51:10;3.30;1.00
8402;DHT22;4238;48.404;9.498;2024-01-30T08:53:37;3.40;1.00
8402;DHT22;4238;48.404;9.498;2024-01-30T08:56:05;3.60;1.00
8402;DHT22;4238;48.404;9.498;2024-01-30T08:58:32;3.70;1.00
8402;DHT22;4238;48.404;9.498;2024-01-30T09:00:59;3.90;1.00
8402;DHT22;4238;48.404;9.498;2024-01-30T09:03:27;4.10;99.90
8402;DHT22;4238;48.404;9.498;2024-01-30T09:05:54;4.30;1.00
8402;DHT22;4238;48.404;9.498;2024-01-30T09:08:21;4.50;99.90
8402;DHT22;4238;48.404;9.498;2024-01-30T09:10:47;4.70;1.00
8402;DHT22;4238;48.404;9.498;2024-01-30T09:13:15;4.80;99.90
8402;DHT22;4238;48.404;9.498;2024-01-30T09:15:42;4.90;99.90
8402;DHT22;4238;48.404;9.498;2024-01-30T09:18:09;5.20;99.90
8402;DHT22;4238;48.404;9.498;2024-01-30T09:20:37;5.30;99.90
8402;DHT22;4238;48.404;9.498;2024-01-30T09:23:04;5.50;10.30
8402;DHT22;4238;48.404;9.498;2024-01-30T09:25:31;5.70;99.90
8402;DHT22;4238;48.404;9.498;2024-01-30T09:27:59;6.00;1.00
8402;DHT22;4238;48.404;9.498;2024-01-30T09:30:26;6.10;99.90
8402;DHT22;4238;48.404;9.498;2024-01-30T09:32:53;6.30;1.00
8402;DHT22;4238;48.404;9.498;2024-01-30T09:35:19;6.40;1.00
8402;DHT22;4238;48.404;9.498;2024-01-30T09:37:47;6.60;1.00
8402;DHT22;4238;48.404;9.498;2024-01-30T09:40:14;6.70;1.00
8402;DHT22;4238;48.404;9.498;2024-01-30T09:42:47;6.80;99.90
8402;DHT22;4238;48.404;9.498;2024-01-30T09:45:14;6.90;1.00
8402;DHT22;4238;48.404;9.498;2024-01-30T09:47:43;7.00;1.00
8402;DHT22;4238;48.404;9.498;2024-01-30T09:50:10;7.20;1.00
8402;DHT22;4238;48.404;9.498;2024-01-30T09:52:37;7.40;99.90
8402;DHT22;4238;48.404;9.498;2024-01-30T09:55:07;7.60;1.00
8402;DHT22;4238;48.404;9.498;2024-01-30T09:57:34;7.80;1.00
8402;DHT22;4238;48.404;9.498;2024-01-30T10:00:01;7.90;99.90
8402;DHT22;4238;48.404;9.498;2024-01-30T10:02:28;8.10;99.90
8402;DHT22;4238;48.404;9.498;2024-01-30T10:04:55;8.20;1.00
8402;DHT22;4238;48.404;9.498;2024-01-30T10:07:21;8.30;99.90
8402;DHT22;4238;48.404;9.498;2024-01-30T10:09:48;8.60;99.90
8402;DHT22;4238;48.404;9.498;2024-01-30T10:12:17;8.70;1.00
8402;DHT22;4238;48.404;9.498;2024-01-30T10:14:43;8.90;1.00
8402;DHT22;4238;48.404;9.498;2024-01-30T10:17:11;9.10;1.00
8402;DHT22;4238;48.404;9.498;2024-01-30T10:19:39;9.40;1.00
8402;DHT22;4238;48.404;9.498;2024-01-30T10:22:06;9.50;99.90
8402;DHT22;4238;48.404;9.498;2024-01-30T10:24:33;9.70;1.00
8402;DHT22;4238;48.404;9.498;2024-01-30T10:27:00;9.70;1.00
8402;DHT22;4238;48.404;9.498;2024-01-30T10:29:29;9.70;1.00
8402;DHT22;4238;48.404;9.498;2024-01-30T10:31:59;9.70;99.90
8402;DHT22;4238;48.404;9.498;2024-01-30T10:34:26;9.80;99.90
8402;DHT22;4238;48.404;9.498;2024-01-30T10:36:59;9.80;1.00
8402;DHT22;4238;48.404;9.498;2024-01-30T10:39:29;9.70;99.90
8402;DHT22;4238;48.404;9.498;2024-01-30T10:42:01;9.70;99.90
8402;DHT22;4238;48.404;9.498;2024-01-30T10:44:36;9.60;1.00
8402;DHT22;4238;48.404;9.498;2024-01-30T10:47:06;9.50;99.90
8402;DHT22;4238;48.404;9.498;2024-01-30T10:49:39;9.60;99.90
8402;DHT22;4238;48.404;9.498;2024-01-30T10:52:08;9.60;99.90
8402;DHT22;4238;48.404;9.498;2024-01-30T10:54:36;9.90;17.40
8402;DHT22;4238;48.404;9.498;2024-01-30T10:57:04;9.90;1.00
8402;DHT22;4238;48.404;9.498;2024-01-30T10:59:33;9.90;39.00
8402;DHT22;4238;48.404;9.498;2024-01-30T11:02:00;10.00;1.00
8402;DHT22;4238;48.404;9.498;2024-01-30T11:04:35;10.10;1.00
8402;DHT22;4238;48.404;9.498;2024-01-30T11:07:03;10.00;99.90
8402;DHT22;4238;48.404;9.498;2024-01-30T11:09:40;10.20;99.90
8402;DHT22;4238;48.404;9.498;2024-01-30T11:12:12;10.30;99.90
8402;DHT22;4238;48.404;9.498;2024-01-30T11:14:40;10.30;99.90
8402;DHT22;4238;48.404;9.498;2024-01-30T11:17:09;10.40;99.90
8402;DHT22;4238;48.404;9.498;2024-01-30T11:19:37;10.30;99.90
8402;DHT22;4238;48.404;9.498;2024-01-30T11:22:06;10.30;99.90
8402;DHT22;4238;48.404;9.498;2024-01-30T11:24:39;10.30;99.90
8402;DHT22;4238;48.404;9.498;2024-01-30T11:27:08;10.40;99.90
8402;DHT22;4238;48.404;9.498;2024-01-30T11:29:35;10.40;99.90
8402;DHT22;4238;48.404;9.498;2024-01-30T11:32:05;10.40;99.90
8402;DHT22;4238;48.404;9.498;2024-01-30T11:34:32;10.40;99.90
8402;DHT22;4238;48.404;9.498;2024-01-30T11:37:03;10.50;99.90
8402;DHT22;4238;48.404;9.498;2024-01-30T11:39:33;10.60;99.90
8402;DHT22;4238;48.404;9.498;2024-01-30T11:42:00;10.70;84.60
8402;DHT22;4238;48.404;9.498;2024-01-30T11:44:29;10.80;56.70
8402;DHT22;4238;48.404;9.498;2024-01-30T11:46:56;10.90;76.20
8402;DHT22;4238;48.404;9.498;2024-01-30T11:49:24;11.00;65.70
8402;DHT22;4238;48.404;9.498;2024-01-30T11:51:52;11.10;99.90
8402;DHT22;4238;48.404;9.498;2024-01-30T11:54:19;11.20;99.90
8402;DHT22;4238;48.404;9.498;2024-01-30T11:56:46;11.30;99.90
8402;DHT22;4238;48.404;9.498;2024-01-30T11:59:14;11.40;99.90
8402;DHT22;4238;48.404;9.498;2024-01-30T12:01:40;11.40;99.90
8402;DHT22;4238;48.404;9.498;2024-01-30T12:04:07;11.40;56.80
8402;DHT22;4238;48.404;9.498;2024-01-30T12:06:36;11.40;20.60
8402;DHT22;4238;48.404;9.498;2024-01-30T12:09:03;11.60;14.70
8402;DHT22;4238;48.404;9.498;2024-01-30T12:11:30;11.70;1.00
8402;DHT22;4238;48.404;9.498;2024-01-30T12:13:57;11.70;21.60
8402;DHT22;4238;48.404;9.498;2024-01-30T12:16:24;11.70;1.00
8402;DHT22;4238;48.404;9.498;2024-01-30T12:18:59;11.80;1.00
8402;DHT22;4238;48.404;9.498;2024-01-30T12:21:28;11.70;1.00
8402;DHT22;4238;48.404;9.498;2024-01-30T12:23:56;11.70;1.00
8402;DHT22;4238;48.404;9.498;2024-01-30T12:26:23;11.70;1.00
8402;DHT22;4238;48.404;9.498;2024-01-30T12:28:53;11.70;1.00
8402;DHT22;4238;48.404;9.498;2024-01-30T12:31:25;11.70;1.00
8402;DHT22;4238;48.404;9.498;2024-01-30T12:33:53;11.50;1.00
8402;DHT22;4238;48.404;9.498;2024-01-30T12:36:21;11.50;1.00
8402;DHT22;4238;48.404;9.498;2024-01-30T12:38:48;11.50;1.00
8402;DHT22;4238;48.404;9.498;2024-01-30T12:41:16;11.40;1.00
8402;DHT22;4238;48.404;9.498;2024-01-30T12:43:43;11.40;1.00
8402;DHT22;4238;48.404;9.498;2024-01-30T12:46:10;11.40;1.00
8402;DHT22;4238;48.404;9.498;2024-01-30T12:48:37;11.40;1.00
8402;DHT22;4238;48.404;9.498;2024-01-30T12:51:05;11.30;1.00
8402;DHT22;4238;48.404;9.498;2024-01-30T12:53:32;11.40;1.00
8402;DHT22;4238;48.404;9.498;2024-01-30T12:55:59;11.40;1.00
8402;DHT22;4238;48.404;9.498;2024-01-30T12:58:27;11.40;1.00
8402;DHT22;4238;48.404;9.498;2024-01-30T13:00:54;11.50;1.00
8402;DHT22;4238;48.404;9.498;2024-01-30T13:03:22;11.50;1.00
8402;DHT22;4238;48.404;9.498;2024-01-30T13:05:49;11.50;1.00
8402;DHT22;4238;48.404;9.498;2024-01-30T13:08:15;11.60;1.00
8402;DHT22;4238;48.404;9.498;2024-01-30T13:10:42;11.50;1.00
8402;DHT22;4238;48.404;9.498;2024-01-30T13:13:09;11.50;1.00
8402;DHT22;4238;48.404;9.498;2024-01-30T13:15:37;11.60;1.00
8402;DHT22;4238;48.404;9.498;2024-01-30T13:18:05;11.60;1.00
8402;DHT22;4238;48.404;9.498;2024-01-30T13:20:31;11.70;1.00
8402;DHT22;4238;48.404;9.498;2024-01-30T13:22:58;11.60;1.00
8402;DHT22;4238;48.404;9.498;2024-01-30T13:25:25;11.50;1.00
8402;DHT22;4238;48.404;9.498;2024-01-30T13:27:52;11.60;1.00
8402;DHT22;4238;48.404;9.498;2024-01-30T13:30:21;11.80;1.00
8402;DHT22;4238;48.404;9.498;2024-01-30T13:32:49;11.90;1.00
8402;DHT22;4238;48.404;9.498;2024-01-30T13:35:16;12.10;1.00
8402;DHT22;4238;48.404;9.498;2024-01-30T13:37:43;12.30;1.00
8402;DHT22;4238;48.404;9.498;2024-01-30T13:40:11;12.60;1.00
8402;DHT22;4238;48.404;9.498;2024-01-30T13:42:38;13.00;1.00
8402;DHT22;4238;48.404;9.498;2024-01-30T13:45:06;13.40;1.00
8402;DHT22;4238;48.404;9.498;2024-01-30T13:47:35;13.50;1.00
8402;DHT22;4238;48.404;9.498;2024-01-30T13:50:04;13.80;1.00
8402;DHT22;4238;48.404;9.498;2024-01-30T13:52:30;13.80;1.00
8402;DHT22;4238;48.404;9.498;2024-01-30T13:54:57;13.40;1.00
8402;DHT22;4238;48.404;9.498;2024-01-30T13:57:25;13.30;1.00
8402;DHT22;4238;48.404;9.498;2024-01-30T13:59:52;13.60;1.00
8402;DHT22;4238;48.404;9.498;2024-01-30T14:02:18;13.70;1.00
8402;DHT22;4238;48.404;9.498;2024-01-30T14:04:46;13.70;1.00
8402;DHT22;4238;48.404;9.498;2024-01-30T14:07:14;13.20;1.00
8402;DHT22;4238;48.404;9.498;2024-01-30T14:09:41;12.90;1.00
8402;DHT22;4238;48.404;9.498;2024-01-30T14:12:08;12.50;1.00
8402;DHT22;4238;48.404;9.498;2024-01-30T14:14:35;12.50;1.00
8402;DHT22;4238;48.404;9.498;2024-01-30T14:17:02;12.40;1.00
8402;DHT22;4238;48.404;9.498;2024-01-30T14:19:31;12.10;1.00
8402;DHT22;4238;48.404;9.498;2024-01-30T14:21:58;12.10;1.00
8402;DHT22;4238;48.404;9.498;2024-01-30T14:24:26;12.00;1.00
8402;DHT22;4238;48.404;9.498;2024-01-30T14:26:53;11.70;1.00
8402;DHT22;4238;48.404;9.498;2024-01-30T14:29:20;11.50;1.00
8402;DHT22;4238;48.404;9.498;2024-01-30T14:31:47;11.30;19.70
8402;DHT22;4238;48.404;9.498;2024-01-30T14:34:14;11.30;99.90
8402;DHT22;4238;48.404;9.498;2024-01-30T14:36:40;11.00;99.90
8402;DHT22;4238;48.404;9.498;2024-01-30T14:39:07;10.90;99.90
8402;DHT22;4238;48.404;9.498;2024-01-30T14:41:36;10.90;99.90
8402;DHT22;4238;48.404;9.498;2024-01-30T14:44:03;10.80;99.90
8402;DHT22;4238;48.404;9.498;2024-01-30T14:46:30;10.80;99.90
8402;DHT22;4238;48.404;9.498;2024-01-30T14:48:57;10.70;99.90
8402;DHT22;4238;48.404;9.498;2024-01-30T14:51:24;10.60;1.00
8402;DHT22;4238;48.404;9.498;2024-01-30T14:53:51;10.40;1.00
8402;DHT22;4238;48.404;9.498;2024-01-30T14:56:18;10.30;1.00
8402;DHT22;4238;48.404;9.498;2024-01-30T14:58:48;10.30;1.00
8402;DHT22;4238;48.404;9.498;2024-01-30T15:01:15;10.20;1.00
8402;DHT22;4238;48.404;9.498;2024-01-30T15:03:41;10.10;1.00
8402;DHT22;4238;48.404;9.498;2024-01-30T15:06:09;10.00;40.90
8402;DHT22;4238;48.404;9.498;2024-01-30T15:08:36;9.90;99.90
8402;DHT22;4238;48.404;9.498;2024-01-30T15:11:03;9.90;1.00
8402;DHT22;4238;48.404;9.498;2024-01-30T15:13:30;9.90;99.90
8402;DHT22;4238;48.404;9.498;2024-01-30T15:15:58;9.80;1.00
8402;DHT22;4238;48.404;9.498;2024-01-30T15:18:27;9.70;99.90
8402;DHT22;4238;48.404;9.498;2024-01-30T15:20:54;9.50;1.00
8402;DHT22;4238;48.404;9.498;2024-01-30T15:23:21;9.50;1.00
8402;DHT22;4238;48.404;9.498;2024-01-30T15:25:48;9.40;1.00
8402;DHT22;4238;48.404;9.498;2024-01-30T15:28:15;9.30;1.00
8402;DHT22;4238;48.404;9.498;2024-01-30T15:30:42;9.20;1.00
8402;DHT22;4238;48.404;9.498;2024-01-30T15:33:11;9.00;1.00
8402;DHT22;4238;48.404;9.498;2024-01-30T15:35:38;8.90;1.00
8402;DHT22;4238;48.404;9.498;2024-01-30T15:38:05;8.90;77.60
8402;DHT22;4238;48.404;9.498;2024-01-30T15:40:34;8.90;69.40
8402;DHT22;4238;48.404;9.498;2024-01-30T15:43:01;8.80;1.00
8402;DHT22;4238;48.404;9.498;2024-01-30T15:45:28;8.70;99.90
8402;DHT22;4238;48.404;9.498;2024-01-30T15:47:54;8.70;1.00
8402;DHT22;4238;48.404;9.498;2024-01-30T15:50:24;8.60;1.00
8402;DHT22;4238;48.404;9.498;2024-01-30T15:52:51;8.40;99.90
8402;DHT22;4238;48.404;9.498;2024-01-30T15:55:18;8.50;99.90
8402;DHT22;4238;48.404;9.498;2024-01-30T15:57:45;8.50;99.90
8402;DHT22;4238;48.404;9.498;2024-01-30T16:00:13;8.40;99.90
8402;DHT22;4238;48.404;9.498;2024-01-30T16:02:40;8.20;99.90
8402;DHT22;4238;48.404;9.498;2024-01-30T16:05:07;8.10;99.90
8402;DHT22;4238;48.404;9.498;2024-01-30T16:07:36;8.10;99.90
8402;DHT22;4238;48.404;9.498;2024-01-30T16:10:03;7.90;99.90
8402;DHT22;4238;48.404;9.498;2024-01-30T16:12:30;7.70;99.90
8402;DHT22;4238;48.404;9.498;2024-01-30T16:14:57;7.50;1.00
8402;DHT22;4238;48.404;9.498;2024-01-30T16:17:24;7.40;1.00
8402;DHT22;4238;48.404;9.498;2024-01-30T16:19:51;7.30;1.00
8402;DHT22;4238;48.404;9.498;2024-01-30T16:22:18;7.10;1.00
8402;DHT22;4238;48.404;9.498;2024-01-30T16:24:49;7.00;1.00
8402;DHT22;4238;48.404;9.498;2024-01-30T16:27:16;6.80;1.00
8402;DHT22;4238;48.404;9.498;2024-01-30T16:29:42;6.70;1.00
8402;DHT22;4238;48.404;9.498;2024-01-30T16:32:09;6.70;1.00
8402;DHT22;4238;48.404;9.498;2024-01-30T16:34:36;6.70;1.00
8402;DHT22;4238;48.404;9.498;2024-01-30T16:37:03;6.70;1.00
8402;DHT22;4238;48.404;9.498;2024-01-30T16:39:30;6.60;1.00
8402;DHT22;4238;48.404;9.498;2024-01-30T16:41:58;6.50;1.00
8402;DHT22;4238;48.404;9.498;2024-01-30T16:44:25;6.60;1.00
8402;DHT22;4238;48.404;9.498;2024-01-30T16:46:52;6.50;1.00
8402;DHT22;4238;48.404;9.498;2024-01-30T16:49:18;6.40;1.00
8402;DHT22;4238;48.404;9.498;2024-01-30T16:51:45;6.40;1.00
8402;DHT22;4238;48.404;9.498;2024-01-30T16:54:12;6.40;1.00
8402;DHT22;4238;48.404;9.498;2024-01-30T16:56:39;6.20;1.00
8402;DHT22;4238;48.404;9.498;2024-01-30T16:59:07;6.10;1.00
8402;DHT22;4238;48.404;9.498;2024-01-30T17:01:34;6.10;1.00
8402;DHT22;4238;48.404;9.498;2024-01-30T17:04:00;6.00;1.00
8402;DHT22;4238;48.404;9.498;2024-01-30T17:06:27;6.00;1.00
8402;DHT22;4238;48.404;9.498;2024-01-30T17:08:54;6.00;1.00
8402;DHT22;4238;48.404;9.498;2024-01-30T17:11:21;6.00;1.00
8402;DHT22;4238;48.404;9.498;2024-01-30T17:13:48;6.10;1.00
8402;DHT22;4238;48.404;9.498;2024-01-30T17:16:16;6.20;1.00
8402;DHT22;4238;48.404;9.498;2024-01-30T17:18:43;6.10;1.00
8402;DHT22;4238;48.404;9.498;2024-01-30T17:21:16;6.20;1.00
8402;DHT22;4238;48.404;9.498;2024-01-30T17:23:43;6.00;1.00
8402;DHT22;4238;48.404;9.498;2024-01-30T17:26:10;5.80;1.00
8402;DHT22;4238;48.404;9.498;2024-01-30T17:28:37;5.70;1.00
8402;DHT22;4238;48.404;9.498;2024-01-30T17:31:04;5.70;1.00
8402;DHT22;4238;48.404;9.498;2024-01-30T17:33:32;5.70;1.00
8402;DHT22;4238;48.404;9.498;2024-01-30T17:35:59;5.60;1.00
8402;DHT22;4238;48.404;9.498;2024-01-30T17:38:27;5.70;1.00
8402;DHT22;4238;48.404;9.498;2024-01-30T17:40:55;5.70;1.00
8402;DHT22;4238;48.404;9.498;2024-01-30T17:43:21;5.70;1.00
8402;DHT22;4238;48.404;9.498;2024-01-30T17:45:48;5.60;1.00
8402;DHT22;4238;48.404;9.498;2024-01-30T17:48:15;5.60;1.00
8402;DHT22;4238;48.404;9.498;2024-01-30T17:50:44;5.70;1.00
8402;DHT22;4238;48.404;9.498;2024-01-30T17:53:11;5.50;1.00
8402;DHT22;4238;48.404;9.498;2024-01-30T17:55:38;5.50;1.00
8402;DHT22;4238;48.404;9.498;2024-01-30T17:58:05;5.40;1.00
8402;DHT22;4238;48.404;9.498;2024-01-30T18:00:32;5.40;1.40
8402;DHT22;4238;48.404;9.498;2024-01-30T18:02:58;5.40;2.40
8402;DHT22;4238;48.404;9.498;2024-01-30T18:05:26;5.60;1.00
8402;DHT22;4238;48.404;9.498;2024-01-30T18:07:55;5.60;1.00
8402;DHT22;4238;48.404;9.498;2024-01-30T18:10:22;5.80;1.00
8402;DHT22;4238;48.404;9.498;2024-01-30T18:12:48;5.60;1.00
8402;DHT22;4238;48.404;9.498;2024-01-30T18:15:16;5.60;1.00
8402;DHT22;4238;48.404;9.498;2024-01-30T18:17:43;5.40;1.00
8402;DHT22;4238;48.404;9.498;2024-01-30T18:20:10;5.30;3.10
8402;DHT22;4238;48.404;9.498;2024-01-30T18:22:37;5.40;7.90
8402;DHT22;4238;48.404;9.498;2024-01-30T18:25:09;5.40;3.10
8402;DHT22;4238;48.404;9.498;2024-01-30T18:27:36;5.60;1.60
8402;DHT22;4238;48.404;9.498;2024-01-30T18:30:03;5.60;1.00
8402;DHT22;4238;48.404;9.498;2024-01-30T18:32:30;5.60;1.00
8402;DHT22;4238;48.404;9.498;2024-01-30T18:34:57;5.60;1.00
8402;DHT22;4238;48.404;9.498;2024-01-30T18:37:24;5.50;1.00
8402;DHT22;4238;48.404;9.498;2024-01-30T18:39:51;5.40;1.00
8402;DHT22;4238;48.404;9.498;2024-01-30T18:42:19;5.40;1.00
8402;DHT22;4238;48.404;9.498;2024-01-30T18:44:46;5.30;1.00
8402;DHT22;4238;48.404;9.498;2024-01-30T18:47:13;5.20;6.00
8402;DHT22;4238;48.404;9.498;2024-01-30T18:49:39;5.10;11.70
8402;DHT22;4238;48.404;9.498;2024-01-30T18:52:06;5.30;14.10
8402;DHT22;4238;48.404;9.498;2024-01-30T18:54:33;5.50;9.60
8402;DHT22;4238;48.404;9.498;2024-01-30T18:57:00;5.50;1.00
8402;DHT22;4238;48.404;9.498;2024-01-30T18:59:28;5.40;1.00
8402;DHT22;4238;48.404;9.498;2024-01-30T19:01:55;5.40;7.20
8402;DHT22;4238;48.404;9.498;2024-01-30T19:04:22;5.40;10.50
8402;DHT22;4238;48.404;9.498;2024-01-30T19:06:49;5.50;8.90
8402;DHT22;4238;48.404;9.498;2024-01-30T19:09:17;5.60;4.90
8402;DHT22;4238;48.404;9.498;2024-01-30T19:11:44;5.80;1.00
8402;DHT22;4238;48.404;9.498;2024-01-30T19:14:11;5.80;1.00
8402;DHT22;4238;48.404;9.498;2024-01-30T19:16:39;5.90;1.00
8402;DHT22;4238;48.404;9.498;2024-01-30T19:19:06;5.90;1.00
8402;DHT22;4238;48.404;9.498;2024-01-30T19:21:33;5.70;1.00
8402;DHT22;4238;48.404;9.498;2024-01-30T19:24:01;5.60;7.90
8402;DHT22;4238;48.404;9.498;2024-01-30T19:26:28;5.60;10.00
8402;DHT22;4238;48.404;9.498;2024-01-30T19:28:55;5.50;16.60
8402;DHT22;4238;48.404;9.498;2024-01-30T19:31:22;5.40;21.30
8402;DHT22;4238;48.404;9.498;2024-01-30T19:33:50;5.40;25.10
8402;DHT22;4238;48.404;9.498;2024-01-30T19:36:17;5.40;27.70
8402;DHT22;4238;48.404;9.498;2024-01-30T19:38:44;5.50;24.20
8402;DHT22;4238;48.404;9.498;2024-01-30T19:41:11;5.70;18.90
8402;DHT22;4238;48.404;9.498;2024-01-30T19:43:39;5.80;9.20
8402;DHT22;4238;48.404;9.498;2024-01-30T19:46:06;6.00;1.00
8402;DHT22;4238;48.404;9.498;2024-01-30T19:48:34;6.10;1.00
8402;DHT22;4238;48.404;9.498;2024-01-30T19:51:02;6.30;1.00
8402;DHT22;4238;48.404;9.498;2024-01-30T19:53:30;6.50;1.00
8402;DHT22;4238;48.404;9.498;2024-01-30T19:55:58;6.60;1.00
8402;DHT22;4238;48.404;9.498;2024-01-30T19:58:24;6.60;1.00
8402;DHT22;4238;48.404;9.498;2024-01-30T20:00:51;6.40;1.00
8402;DHT22;4238;48.404;9.498;2024-01-30T20:03:18;6.30;1.00
8402;DHT22;4238;48.404;9.498;2024-01-30T20:05:45;6.10;1.00
8402;DHT22;4238;48.404;9.498;2024-01-30T20:08:13;6.10;5.20
8402;DHT22;4238;48.404;9.498;2024-01-30T20:10:41;6.10;15.50
8402;DHT22;4238;48.404;9.498;2024-01-30T20:13:08;5.90;19.80
8402;DHT22;4238;48.404;9.498;2024-01-30T20:15:34;5.80;26.20
8402;DHT22;4238;48.404;9.498;2024-01-30T20:18:01;5.80;29.70
8402;DHT22;4238;48.404;9.498;2024-01-30T20:20:28;5.70;31.90
8402;DHT22;4238;48.404;9.498;2024-01-30T20:22:55;5.70;31.60
8402;DHT22;4238;48.404;9.498;2024-01-30T20:25:23;5.80;33.80
8402;DHT22;4238;48.404;9.498;2024-01-30T20:27:50;5.80;29.30
8402;DHT22;4238;48.404;9.498;2024-01-30T20:30:17;5.70;31.60
8402;DHT22;4238;48.404;9.498;2024-01-30T20:32:47;5.80;39.30
8402;DHT22;4238;48.404;9.498;2024-01-30T20:35:14;5.90;29.00
8402;DHT22;4238;48.404;9.498;2024-01-30T20:37:41;5.80;27.10
8402;DHT22;4238;48.404;9.498;2024-01-30T20:40:08;5.80;30.00
8402;DHT22;4238;48.404;9.498;2024-01-30T20:42:37;5.80;35.80
8402;DHT22;4238;48.404;9.498;2024-01-30T20:45:04;5.80;41.80
8402;DHT22;4238;48.404;9.498;2024-01-30T20:47:31;5.90;38.30
8402;DHT22;4238;48.404;9.498;2024-01-30T20:49:59;6.10;32.30
8402;DHT22;4238;48.404;9.498;2024-01-30T20:52:26;6.00;27.80
8402;DHT22;4238;48.404;9.498;2024-01-30T20:54:53;5.80;19.90
8402;DHT22;4238;48.404;9.498;2024-01-30T20:57:19;5.80;26.70
8402;DHT22;4238;48.404;9.498;2024-01-30T20:59:48;5.80;32.40
8402;DHT22;4238;48.404;9.498;2024-01-30T21:02:14;5.70;35.80
8402;DHT22;4238;48.404;9.498;2024-01-30T21:04:41;5.60;36.90
8402;DHT22;4238;48.404;9.498;2024-01-30T21:07:09;5.60;40.00
8402;DHT22;4238;48.404;9.498;2024-01-30T21:09:36;5.50;41.80
8402;DHT22;4238;48.404;9.498;2024-01-30T21:12:03;5.40;42.30
8402;DHT22;4238;48.404;9.498;2024-01-30T21:14:30;5.30;51.50
8402;DHT22;4238;48.404;9.498;2024-01-30T21:16:58;5.10;55.70
8402;DHT22;4238;48.404;9.498;2024-01-30T21:19:25;5.10;55.60
8402;DHT22;4238;48.404;9.498;2024-01-30T21:21:52;5.10;51.90